Observation data for Haskell on 12/08/2018      Previous  Date       Current Mesonet Observations  Soil Data  Daily Summary Page  Observations in Plain Language
KHA1 080600Z 01012KT 01/00 A3027 RMK A01 T00080000  RH  096%=      5-min Rain = 0
KHA1 080605Z 01011KT 01/00 A3027 RMK A01 T00080000  RH  096%=      5-min Rain = 0.01
KHA1 080610Z 00012G17KT 01/00 A3027 RMK A01 T000800-0  RH  096%=      5-min Rain = 0
KHA1 080615Z 01011KT 01/00 A3028 RMK A01 T000800-0  RH  096%=      5-min Rain = 0.01
KHA1 080620Z 01011KT 01/00 A3028 RMK A01 T00080000  RH  096%=      5-min Rain = 0
KHA1 080625Z 01012KT 01/M00 A3028 RMK A01 T00081001  RH  095%=      5-min Rain = 0.01
KHA1 080630Z 01010KT 01/00 A3028 RMK A01 T00080000  RH  096%=      5-min Rain = 0
KHA1 080635Z 01010KT 01/00 A3029 RMK A01 T00080000  RH  096%=      5-min Rain = 0
KHA1 080640Z 01012KT 01/00 A3028 RMK A01 T000800-0  RH  096%=      5-min Rain = 0
KHA1 080645Z 00012KT 01/00 A3028 RMK A01 T000700-0  RH  096%=      5-min Rain = 0.01
KHA1 080650Z 01011KT 01/00 A3027 RMK A01 T000700-0  RH  096%=      5-min Rain = 0
KHA1 080655Z 01011KT 01/M00 A3027 RMK A01 T00061001  RH  096%=      5-min Rain = 0
KHA1 080700Z 01011KT 01/00 A3026 RMK A01 T000600-0  RH  096%=      5-min Rain = 0
KHA1 080705Z 02011KT 01/00 A3026 RMK A01 T000600-0  RH  097%=      5-min Rain = 0
KHA1 080710Z 00010KT 01/00 A3027 RMK A01 T000600-0  RH  096%=      5-min Rain = 0
KHA1 080715Z 01011KT 01/M00 A3027 RMK A01 T00061001  RH  096%=      5-min Rain = 0
KHA1 080720Z 01010KT 01/M00 A3028 RMK A01 T00061001  RH  096%=      5-min Rain = 0
KHA1 080725Z 01011KT 01/M00 A3028 RMK A01 T00061001  RH  096%=      5-min Rain = 0
KHA1 080730Z 01013KT 01/M00 A3027 RMK A01 T00061001  RH  096%=      5-min Rain = 0.01
KHA1 080735Z 01012KT 01/M00 A3027 RMK A01 T00061001  RH  096%=      5-min Rain = 0
KHA1 080740Z 01011KT 01/M00 A3028 RMK A01 T00061002  RH  096%=      5-min Rain = 0
KHA1 080745Z 01010G15KT 01/M00 A3028 RMK A01 T00061001  RH  096%=      5-min Rain = 0
KHA1 080750Z 01011KT 01/M00 A3028 RMK A01 T00061001  RH  096%=      5-min Rain = 0.01
KHA1 080755Z 01010KT 01/M00 A3028 RMK A01 T00061001  RH  096%=      5-min Rain = 0.01
KHA1 080800Z 01011KT 01/M00 A3028 RMK A01 T00061001  RH  096%=      5-min Rain = 0.01
KHA1 080805Z 01011G16KT 01/M00 A3028 RMK A01 T00061001  RH  096%=      5-min Rain = 0
KHA1 080810Z 01010KT 01/M00 A3028 RMK A01 T00061001  RH  096%=      5-min Rain = 0.01
KHA1 080815Z 01010KT 01/M00 A3028 RMK A01 T00071001  RH  096%=      5-min Rain = 0
KHA1 080820Z 01012KT 01/M00 A3027 RMK A01 T00061001  RH  096%=      5-min Rain = 0
KHA1 080825Z 01012KT 01/M00 A3027 RMK A01 T00061001  RH  096%=      5-min Rain = 0
KHA1 080830Z 01011KT 01/M00 A3027 RMK A01 T00061001  RH  096%=      5-min Rain = 0.01
KHA1 080835Z 00012KT 01/M00 A3027 RMK A01 T00061002  RH  096%=      5-min Rain = 0
KHA1 080840Z 01012KT 01/M00 A3027 RMK A01 T00061002  RH  096%=      5-min Rain = 0
KHA1 080845Z 01012KT 01/M00 A3027 RMK A01 T00061002  RH  096%=      5-min Rain = 0
KHA1 080850Z 01012KT 01/M00 A3027 RMK A01 T00061002  RH  095%=      5-min Rain = 0
KHA1 080855Z 01012KT 01/M00 A3027 RMK A01 T00061002  RH  096%=      5-min Rain = 0
KHA1 080900Z 01013KT 01/M00 A3026 RMK A01 T00051002  RH  096%=      5-min Rain = 0.01
KHA1 080905Z 01014KT 01/M00 A3026 RMK A01 T00051003  RH  096%=      5-min Rain = 0
KHA1 080910Z 01012KT 01/M00 A3026 RMK A01 T00051002  RH  096%=      5-min Rain = 0.01
KHA1 080915Z 01011KT 01/M00 A3026 RMK A01 T00051002  RH  096%=      5-min Rain = 0
KHA1 080920Z 01012KT 01/M00 A3025 RMK A01 T00051002  RH  096%=      5-min Rain = 0.01
KHA1 080925Z 01014KT 00/M00 A3025 RMK A01 T00041003  RH  096%=      5-min Rain = 0
KHA1 080930Z 01013KT 00/M00 A3025 RMK A01 T00041004  RH  096%=      5-min Rain = 0
KHA1 080935Z 01014KT 00/M00 A3025 RMK A01 T00041004  RH  096%=      5-min Rain = 0
KHA1 080940Z 01013KT 00/M00 A3025 RMK A01 T00041003  RH  096%=      5-min Rain = 0
KHA1 080945Z 01012G17KT 01/M00 A3025 RMK A01 T00051002  RH  096%=      5-min Rain = 0
KHA1 080950Z 01015KT 00/M00 A3025 RMK A01 T00041003  RH  096%=      5-min Rain = 0
KHA1 080955Z 01013KT 01/M00 A3025 RMK A01 T00051003  RH  096%=      5-min Rain = 0
KHA1 081000Z 01014G19KT 00/M00 A3025 RMK A01 T00041003  RH  096%=      5-min Rain = 0
KHA1 081005Z 01014KT 00/M00 A3025 RMK A01 T00041003  RH  096%=      5-min Rain = 0
KHA1 081010Z 01015KT 00/M00 A3024 RMK A01 T00041003  RH  096%=      5-min Rain = 0
KHA1 081015Z 01014G19KT 00/M00 A3024 RMK A01 T00041003  RH  096%=      5-min Rain = 0
KHA1 081020Z 01014G19KT 00/M00 A3025 RMK A01 T00041003  RH  096%=      5-min Rain = 0
KHA1 081025Z 01013KT 01/M00 A3025 RMK A01 T00051003  RH  096%=      5-min Rain = 0
KHA1 081030Z 01014KT 01/M00 A3024 RMK A01 T00051003  RH  096%=      5-min Rain = 0
KHA1 081035Z 01014KT 01/M00 A3024 RMK A01 T00051003  RH  096%=      5-min Rain = 0
KHA1 081040Z 01014KT 01/M00 A3025 RMK A01 T00051003  RH  096%=      5-min Rain = 0
KHA1 081045Z 01012KT 01/M00 A3025 RMK A01 T00051003  RH  096%=      5-min Rain = 0
KHA1 081050Z 01013KT 01/M00 A3024 RMK A01 T00051002  RH  096%=      5-min Rain = 0
KHA1 081055Z 00014G19KT 01/M00 A3024 RMK A01 T00051002  RH  096%=      5-min Rain = 0.01
KHA1 081100Z 00014KT 01/M00 A3025 RMK A01 T00051003  RH  096%=      5-min Rain = 0
KHA1 081105Z 00014G19KT 00/M00 A3025 RMK A01 T00041004  RH  096%=      5-min Rain = 0
KHA1 081110Z 00014G21KT 00/M00 A3025 RMK A01 T00031004  RH  096%=      5-min Rain = 0
KHA1 081115Z 00014KT 00/M00 A3025 RMK A01 T00031004  RH  096%=      5-min Rain = 0.01
KHA1 081120Z 01013KT 00/M00 A3025 RMK A01 T00031004  RH  096%=      5-min Rain = 0
KHA1 081125Z 01012G17KT 00/M00 A3025 RMK A01 T00031004  RH  096%=      5-min Rain = 0.01
KHA1 081130Z 01015KT 00/M01 A3025 RMK A01 T00021005  RH  096%=      5-min Rain = 0
KHA1 081135Z 01013G18KT 00/M01 A3025 RMK A01 T00021006  RH  095%=      5-min Rain = 0.01
KHA1 081140Z 01012KT 00/M01 A3026 RMK A01 T00021005  RH  096%=      5-min Rain = 0
KHA1 081145Z 01013KT 00/M01 A3026 RMK A01 T00021005  RH  096%=      5-min Rain = 0.01
KHA1 081150Z 01014KT 00/M01 A3026 RMK A01 T00011006  RH  096%=      5-min Rain = 0.01
KHA1 081155Z 01013KT 00/M01 A3026 RMK A01 T00011007  RH  096%=      5-min Rain = 0
KHA1 081200Z 01012KT 00/01 A3026 RMK A01 T000000-6  RH  096%=      5-min Rain = 0
KHA1 081205Z 01014KT 00/01 A3026 RMK A01 T000000-7  RH  096%=      5-min Rain = 0.01
KHA1 081210Z 01014KT 00/01 A3026 RMK A01 T000000-7  RH  096%=      5-min Rain = 0
KHA1 081215Z 01013KT 00/01 A3026 RMK A01 T00-000-8  RH  096%=      5-min Rain = 0
KHA1 081220Z 01012KT M00/M01 A3026 RMK A01 T10011008  RH  096%=      5-min Rain = 0.01
KHA1 081225Z 01011KT M00/M01 A3027 RMK A01 T10021008  RH  097%=      5-min Rain = 0
KHA1 081230Z 00010KT M00/M01 A3027 RMK A01 T10031008  RH  097%=      5-min Rain = 0
KHA1 081235Z 36010KT M00/M01 A3027 RMK A01 T10031008  RH  097%=      5-min Rain = 0
KHA1 081240Z 00011KT M00/M01 A3027 RMK A01 T10041009  RH  097%=      5-min Rain = 0
KHA1 081245Z 00012KT M00/M01 A3027 RMK A01 T10041009  RH  098%=      5-min Rain = 0
KHA1 081250Z 00012KT M01/M01 A3027 RMK A01 T10051009  RH  098%=      5-min Rain = 0
KHA1 081255Z 00013KT M01/M01 A3027 RMK A01 T10051010  RH  098%=      5-min Rain = 0
KHA1 081300Z 00011KT M01/M01 A3027 RMK A01 T10061010  RH  098%=      5-min Rain = 0
KHA1 081305Z 36011KT M01/M01 A3027 RMK A01 T10061009  RH  098%=      5-min Rain = 0
KHA1 081310Z 36013KT M01/M01 A3027 RMK A01 T10061010  RH  098%=      5-min Rain = 0
KHA1 081315Z 00012KT M01/M01 A3028 RMK A01 T10071010  RH  099%=      5-min Rain = 0
KHA1 081320Z 36013KT M01/M01 A3028 RMK A01 T10071010  RH  099%=      5-min Rain = 0
KHA1 081325Z 36012KT M01/M01 A3028 RMK A01 T10071010  RH  099%=      5-min Rain = 0
KHA1 081330Z 35013KT M01/M01 A3028 RMK A01 T10081011  RH  099%=      5-min Rain = 0
KHA1 081335Z 36014KT M01/M01 A3028 RMK A01 T10091012  RH  099%=      5-min Rain = 0
KHA1 081340Z 00013G18KT M01/M01 A3029 RMK A01 T10091012  RH  099%=      5-min Rain = 0
KHA1 081345Z 36012KT M01/M01 A3029 RMK A01 T10091012  RH  099%=      5-min Rain = 0
KHA1 081350Z 36011KT M01/M01 A3029 RMK A01 T10091012  RH  099%=      5-min Rain = 0
KHA1 081355Z 35013KT M01/M01 A3029 RMK A01 T10091012  RH  099%=      5-min Rain = 0
KHA1 081400Z 35012KT M01/M01 A3029 RMK A01 T10101013  RH  099%=      5-min Rain = 0
KHA1 081405Z 36013KT M01/M01 A3029 RMK A01 T10101013  RH  099%=      5-min Rain = 0
KHA1 081410Z 35011KT M01/M01 A3029 RMK A01 T10101013  RH  099%=      5-min Rain = 0
KHA1 081415Z 36011KT M01/M01 A303 RMK A01 T10101013  RH  099%=      5-min Rain = 0
KHA1 081420Z 35012KT M01/M01 A303 RMK A01 T10111014  RH  099%=      5-min Rain = 0
KHA1 081425Z 36012KT M01/M01 A303 RMK A01 T10111014  RH  099%=      5-min Rain = 0
KHA1 081430Z 36011KT M01/M01 A303 RMK A01 T10111014  RH  099%=      5-min Rain = 0
KHA1 081435Z 36011KT M01/M01 A303 RMK A01 T10111014  RH  099%=      5-min Rain = 0
KHA1 081440Z 36010KT M01/M01 A303 RMK A01 T10111014  RH  099%=      5-min Rain = 0
KHA1 081445Z 36012KT M01/M01 A3031 RMK A01 T10111014  RH  099%=      5-min Rain = 0
KHA1 081450Z 35011KT M01/M01 A3031 RMK A01 T10111014  RH  099%=      5-min Rain = 0
KHA1 081455Z 35010KT M01/M01 A3031 RMK A01 T10111014  RH  099%=      5-min Rain = 0
KHA1 081500Z 35010KT M01/M01 A3031 RMK A01 T10111014  RH  099%=      5-min Rain = 0
KHA1 081505Z 35010KT M01/M01 A3031 RMK A01 T10111014  RH  099%=      5-min Rain = 0
KHA1 081510Z 35012KT M01/M02 A3031 RMK A01 T10121015  RH  099%=      5-min Rain = 0
KHA1 081515Z 35011KT M01/M02 A3032 RMK A01 T10121015  RH  099%=      5-min Rain = 0
KHA1 081520Z 35011KT M01/M02 A3032 RMK A01 T10121015  RH  099%=      5-min Rain = 0
KHA1 081525Z 35010KT M01/M02 A3032 RMK A01 T10121015  RH  099%=      5-min Rain = 0
KHA1 081530Z 35010G15KT M01/M02 A3032 RMK A01 T10121015  RH  099%=      5-min Rain = 0
KHA1 081535Z 35010KT M01/M02 A3032 RMK A01 T10121015  RH  099%=      5-min Rain = 0
KHA1 081540Z 34010KT M01/M02 A3032 RMK A01 T10121015  RH  099%=      5-min Rain = 0
KHA1 081545Z 34010KT M01/M02 A3033 RMK A01 T10121015  RH  099%=      5-min Rain = 0
KHA1 081550Z 34011KT M01/M02 A3033 RMK A01 T10131016  RH  099%=      5-min Rain = 0
KHA1 081555Z 35011KT M01/M02 A3033 RMK A01 T10131016  RH  099%=      5-min Rain = 0
KHA1 081600Z 34012KT M01/M02 A3033 RMK A01 T10131016  RH  099%=      5-min Rain = 0
KHA1 081605Z 34012KT M01/M02 A3033 RMK A01 T10131016  RH  099%=      5-min Rain = 0
KHA1 081610Z 34012KT M01/M02 A3033 RMK A01 T10131016  RH  099%=      5-min Rain = 0
KHA1 081615Z 34012KT M01/M02 A3033 RMK A01 T10131016  RH  099%=      5-min Rain = 0
KHA1 081620Z 34013KT M01/M02 A3033 RMK A01 T10131016  RH  099%=      5-min Rain = 0
KHA1 081625Z 34013KT M01/M02 A3033 RMK A01 T10131016  RH  099%=      5-min Rain = 0
KHA1 081630Z 34012KT M01/M02 A3033 RMK A01 T10131016  RH  099%=      5-min Rain = 0
KHA1 081635Z 34012KT M01/M02 A3033 RMK A01 T10131016  RH  099%=      5-min Rain = 0
KHA1 081640Z 34014KT M01/M02 A3033 RMK A01 T10131017  RH  099%=      5-min Rain = 0
KHA1 081645Z 34014KT M01/M02 A3033 RMK A01 T10131017  RH  099%=      5-min Rain = 0
KHA1 081650Z 34014KT M01/M02 A3033 RMK A01 T10141017  RH  099%=      5-min Rain = 0
KHA1 081655Z 34014KT M01/M02 A3033 RMK A01 T10141017  RH  099%=      5-min Rain = 0
KHA1 081700Z 34013KT M01/M02 A3033 RMK A01 T10141017  RH  099%=      5-min Rain = 0
KHA1 081705Z 34014KT M01/M02 A3033 RMK A01 T10141017  RH  099%=      5-min Rain = 0
KHA1 081710Z 34016KT M01/M02 A3032 RMK A01 T10141018  RH  098%=      5-min Rain = 0
KHA1 081715Z 34016KT M02/M02 A3032 RMK A01 T10151018  RH  098%=      5-min Rain = 0
KHA1 081720Z 34016KT M02/M02 A3032 RMK A01 T10151018  RH  098%=      5-min Rain = 0
KHA1 081725Z 34015KT M01/M02 A3032 RMK A01 T10141018  RH  098%=      5-min Rain = 0
KHA1 081730Z 34015KT M01/M02 A3032 RMK A01 T10141017  RH  098%=      5-min Rain = 0
KHA1 081735Z 34014KT M01/M02 A3032 RMK A01 T10141017  RH  098%=      5-min Rain = 0
KHA1 081740Z 34015KT M01/M02 A3032 RMK A01 T10131017  RH  098%=      5-min Rain = 0
KHA1 081745Z 34014KT M01/M02 A3032 RMK A01 T10131017  RH  098%=      5-min Rain = 0
KHA1 081750Z 34015KT M01/M02 A3032 RMK A01 T10131017  RH  098%=      5-min Rain = 0
KHA1 081755Z 34014KT M01/M02 A3031 RMK A01 T10131016  RH  098%=      5-min Rain = 0
KHA1 081800Z 34015KT M01/M02 A3031 RMK A01 T10131017  RH  098%=      5-min Rain = 0
KHA1 081805Z 34015KT M01/M02 A3031 RMK A01 T10131017  RH  098%=      5-min Rain = 0
KHA1 081810Z 34015KT M01/M02 A3031 RMK A01 T10121017  RH  098%=      5-min Rain = 0
KHA1 081815Z 34015KT M01/M02 A3031 RMK A01 T10121016  RH  098%=      5-min Rain = 0
KHA1 081820Z 34015KT M01/M02 A3031 RMK A01 T10121016  RH  098%=      5-min Rain = 0
KHA1 081825Z 34015KT M01/M02 A303 RMK A01 T10111015  RH  098%=      5-min Rain = 0
KHA1 081830Z 34016KT M01/M02 A303 RMK A01 T10111016  RH  098%=      5-min Rain = 0
KHA1 081835Z 34014KT M01/M02 A303 RMK A01 T10101015  RH  098%=      5-min Rain = 0
KHA1 081840Z 34015KT M01/M01 A303 RMK A01 T10101014  RH  098%=      5-min Rain = 0
KHA1 081845Z 34014KT M01/M01 A3029 RMK A01 T10101014  RH  098%=      5-min Rain = 0
KHA1 081850Z 34015KT M01/M01 A3029 RMK A01 T10101014  RH  098%=      5-min Rain = 0
KHA1 081855Z 34014KT M01/M01 A3029 RMK A01 T10091014  RH  098%=      5-min Rain = 0
KHA1 081900Z 34015KT M01/M01 A3029 RMK A01 T10091014  RH  098%=      5-min Rain = 0
KHA1 081905Z 34015KT M01/M01 A3029 RMK A01 T10091014  RH  098%=      5-min Rain = 0
KHA1 081910Z 34015KT M01/M01 A3029 RMK A01 T10091014  RH  098%=      5-min Rain = 0
KHA1 081915Z 34016KT M01/M01 A3028 RMK A01 T10091014  RH  098%=      5-min Rain = 0
KHA1 081920Z 34015KT M01/M01 A3028 RMK A01 T10091014  RH  097%=      5-min Rain = 0
KHA1 081925Z 34015KT M01/M01 A3028 RMK A01 T10081013  RH  097%=      5-min Rain = 0
KHA1 081930Z 34016KT M01/M01 A3028 RMK A01 T10081013  RH  097%=      5-min Rain = 0
KHA1 081935Z 34015KT M01/M01 A3028 RMK A01 T10081013  RH  097%=      5-min Rain = 0.01
KHA1 081940Z 34015KT M01/M01 A3028 RMK A01 T10071012  RH  097%=      5-min Rain = 0.01
KHA1 081945Z 34016KT M01/M01 A3028 RMK A01 T10071013  RH  097%=      5-min Rain = 0.01
KHA1 081950Z 34016KT M01/M01 A3028 RMK A01 T10071013  RH  097%=      5-min Rain = 0
KHA1 081955Z 34017KT M01/M01 A3028 RMK A01 T10081014  RH  097%=      5-min Rain = 0
KHA1 082000Z 34016KT M01/M02 A3028 RMK A01 T10081015  RH  096%=      5-min Rain = 0
KHA1 082005Z 34014KT M01/M02 A3028 RMK A01 T10091015  RH  096%=      5-min Rain = 0
KHA1 082010Z 34014G19KT M01/M01 A3027 RMK A01 T10081014  RH  097%=      5-min Rain = 0
KHA1 082015Z 34014KT M01/M02 A3027 RMK A01 T10091016  RH  096%=      5-min Rain = 0
KHA1 082020Z 34015KT M01/M02 A3027 RMK A01 T10091016  RH  096%=      5-min Rain = 0
KHA1 082025Z 34013KT M01/M02 A3027 RMK A01 T10081016  RH  095%=      5-min Rain = 0
KHA1 082030Z 34013KT M01/M02 A3027 RMK A01 T10081017  RH  095%=      5-min Rain = 0.01
KHA1 082035Z 34012KT M01/M02 A3027 RMK A01 T10081017  RH  094%=      5-min Rain = 0.01
KHA1 082040Z 34012KT M01/M02 A3027 RMK A01 T10071017  RH  094%=      5-min Rain = 0.01
KHA1 082045Z 34012KT M01/M02 A3027 RMK A01 T10061017  RH  093%=      5-min Rain = 0.01
KHA1 082050Z 33012KT M01/M02 A3027 RMK A01 T10061017  RH  093%=      5-min Rain = 0
KHA1 082055Z 34012KT M01/M02 A3027 RMK A01 T10071017  RH  093%=      5-min Rain = 0.01
KHA1 082100Z 33010KT M01/M02 A3027 RMK A01 T10061017  RH  093%=      5-min Rain = 0
KHA1 082105Z 33010KT M01/M02 A3027 RMK A01 T10051017  RH  093%=      5-min Rain = 0.01
KHA1 082110Z 34010KT M01/M02 A3027 RMK A01 T10051018  RH  092%=      5-min Rain = 0
KHA1 082115Z 33010KT M00/M02 A3027 RMK A01 T10041018  RH  091%=      5-min Rain = 0.01
KHA1 082120Z 33010KT M00/M02 A3027 RMK A01 T10041018  RH  091%=      5-min Rain = 0
KHA1 082125Z 33009KT M00/M02 A3027 RMK A01 T10031017  RH  091%=      5-min Rain = 0
KHA1 082130Z 33010KT M00/M02 A3027 RMK A01 T10031019  RH  090%=      5-min Rain = 0.01
KHA1 082135Z 33009KT M00/M02 A3027 RMK A01 T10031018  RH  090%=      5-min Rain = 0
KHA1 082140Z 33009KT M00/M02 A3027 RMK A01 T10031019  RH  090%=      5-min Rain = 0.01
KHA1 082145Z 33008KT M00/M02 A3027 RMK A01 T10021019  RH  090%=      5-min Rain = 0
KHA1 082150Z 33007KT M00/M02 A3027 RMK A01 T10021018  RH  090%=      5-min Rain = 0
KHA1 082155Z 32008KT M00/M02 A3027 RMK A01 T10011019  RH  089%=      5-min Rain = 0
KHA1 082200Z 32008KT M00/M02 A3027 RMK A01 T10011019  RH  089%=      5-min Rain = 0.01
KHA1 082205Z 32009KT M00/M02 A3027 RMK A01 T10011020  RH  088%=      5-min Rain = 0
KHA1 082210Z 32009KT 00/02 A3027 RMK A01 T00-00-20  RH  087%=      5-min Rain = 0
KHA1 082215Z 32008KT 00/02 A3026 RMK A01 T00-00-20  RH  087%=      5-min Rain = 0.01
KHA1 082220Z 32008KT 00/02 A3026 RMK A01 T00-00-20  RH  087%=      5-min Rain = 0
KHA1 082225Z 32008KT 00/02 A3026 RMK A01 T00000-20  RH  087%=      5-min Rain = 0
KHA1 082230Z 32008KT 00/02 A3027 RMK A01 T00000-20  RH  087%=      5-min Rain = 0
KHA1 082235Z 31008KT 00/02 A3027 RMK A01 T00000-19  RH  088%=      5-min Rain = 0.01
KHA1 082240Z 31009KT 00/02 A3027 RMK A01 T00000-19  RH  087%=      5-min Rain = 0
KHA1 082245Z 31009KT 00/M02 A3027 RMK A01 T00011019  RH  087%=      5-min Rain = 0
KHA1 082250Z 32009KT 00/M02 A3027 RMK A01 T00011019  RH  087%=      5-min Rain = 0
KHA1 082255Z 32008KT 00/M02 A3027 RMK A01 T00011019  RH  087%=      5-min Rain = 0
KHA1 082300Z 32007KT 00/M02 A3027 RMK A01 T00011019  RH  088%=      5-min Rain = 0
KHA1 082305Z 32008KT 00/M02 A3027 RMK A01 T00011019  RH  087%=      5-min Rain = 0
KHA1 082310Z 31008KT 00/M02 A3027 RMK A01 T00011019  RH  087%=      5-min Rain = 0
KHA1 082315Z 31008KT 00/M02 A3027 RMK A01 T00011018  RH  088%=      5-min Rain = 0
KHA1 082320Z 31007KT 00/M02 A3027 RMK A01 T00011018  RH  088%=      5-min Rain = 0.01
KHA1 082325Z 31007KT 00/M02 A3027 RMK A01 T00021018  RH  087%=      5-min Rain = 0
KHA1 082330Z 31008KT 00/M02 A3027 RMK A01 T00021018  RH  088%=      5-min Rain = 0
KHA1 082335Z 31008KT 00/M02 A3027 RMK A01 T00021018  RH  087%=      5-min Rain = 0
KHA1 082340Z 31007KT 00/M02 A3027 RMK A01 T00021018  RH  088%=      5-min Rain = 0
KHA1 082345Z 31007KT 00/M02 A3028 RMK A01 T00021017  RH  088%=      5-min Rain = 0
KHA1 082350Z 30007KT 00/M02 A3028 RMK A01 T00021016  RH  088%=      5-min Rain = 0
KHA1 082355Z 30006KT 00/M02 A3028 RMK A01 T00011016  RH  089%=      5-min Rain = 0
KHA1 090000Z 31006KT 00/M02 A3028 RMK A01 T00011017  RH  089%=      5-min Rain = 0
KHA1 090005Z 30006KT 00/02 A3028 RMK A01 T00000-17  RH  089%=      5-min Rain = 0
KHA1 090010Z 31006KT 00/02 A3028 RMK A01 T00000-17  RH  089%=      5-min Rain = 0
KHA1 090015Z 30006KT M00/M02 A3028 RMK A01 T10011017  RH  090%=      5-min Rain = 0
KHA1 090020Z 30005KT M00/M02 A3028 RMK A01 T10011017  RH  090%=      5-min Rain = 0
KHA1 090025Z 30006KT M00/M02 A3028 RMK A01 T10011017  RH  090%=      5-min Rain = 0
KHA1 090030Z 31006KT M00/M02 A3028 RMK A01 T10011016  RH  090%=      5-min Rain = 0
KHA1 090035Z 30006KT M00/M02 A3029 RMK A01 T10021016  RH  091%=      5-min Rain = 0
KHA1 090040Z 30006KT M00/M02 A3029 RMK A01 T10021016  RH  091%=      5-min Rain = 0
KHA1 090045Z 29006KT M00/M02 A3029 RMK A01 T10021017  RH  091%=      5-min Rain = 0
KHA1 090050Z 29005KT M00/M02 A3029 RMK A01 T10031017  RH  091%=      5-min Rain = 0
KHA1 090055Z 30005KT M00/M02 A3029 RMK A01 T10041018  RH  091%=      5-min Rain = 0
KHA1 090100Z 30005KT M01/M02 A3029 RMK A01 T10051019  RH  091%=      5-min Rain = 0
KHA1 090105Z 29005KT M01/M02 A3029 RMK A01 T10061019  RH  092%=      5-min Rain = 0
KHA1 090110Z 29005KT M01/M02 A3029 RMK A01 T10071020  RH  092%=      5-min Rain = 0
KHA1 090115Z 29005KT M01/M02 A3029 RMK A01 T10071021  RH  091%=      5-min Rain = 0
KHA1 090120Z 29005KT M01/M02 A3029 RMK A01 T10081021  RH  092%=      5-min Rain = 0
KHA1 090125Z 29006KT M01/M02 A3029 RMK A01 T10091022  RH  092%=      5-min Rain = 0
KHA1 090130Z 29006KT M01/M02 A3029 RMK A01 T10091021  RH  092%=      5-min Rain = 0
KHA1 090135Z 29006KT M01/M02 A303 RMK A01 T10081021  RH  092%=      5-min Rain = 0
KHA1 090140Z 29005KT M01/M02 A303 RMK A01 T10081021  RH  091%=      5-min Rain = 0
KHA1 090145Z 29005KT M01/M02 A303 RMK A01 T10081021  RH  091%=      5-min Rain = 0
KHA1 090150Z 29005KT M01/M02 A303 RMK A01 T10081021  RH  091%=      5-min Rain = 0
KHA1 090155Z 29005KT M01/M02 A303 RMK A01 T10081022  RH  091%=      5-min Rain = 0
KHA1 090200Z 29005KT M01/M02 A303 RMK A01 T10091023  RH  091%=      5-min Rain = 0
KHA1 090205Z 29005KT M01/M02 A303 RMK A01 T10101024  RH  091%=      5-min Rain = 0
KHA1 090210Z 29006KT M01/M02 A303 RMK A01 T10101024  RH  091%=      5-min Rain = 0
KHA1 090215Z 29006KT M01/M03 A303 RMK A01 T10101025  RH  090%=      5-min Rain = 0
KHA1 090220Z 30005KT M01/M03 A303 RMK A01 T10111027  RH  090%=      5-min Rain = 0
KHA1 090225Z 30005KT M01/M03 A303 RMK A01 T10141028  RH  090%=      5-min Rain = 0
KHA1 090230Z 30004KT M02/M03 A303 RMK A01 T10151029  RH  091%=      5-min Rain = 0
KHA1 090235Z 29004KT M02/M03 A303 RMK A01 T10161029  RH  091%=      5-min Rain = 0
KHA1 090240Z 29005KT M02/M03 A3031 RMK A01 T10161029  RH  092%=      5-min Rain = 0
KHA1 090245Z 29006KT M02/M03 A3031 RMK A01 T10151029  RH  091%=      5-min Rain = 0
KHA1 090250Z 29005KT M01/M03 A303 RMK A01 T10141029  RH  090%=      5-min Rain = 0
KHA1 090255Z 29005KT M02/M03 A303 RMK A01 T10151031  RH  090%=      5-min Rain = 0
KHA1 090300Z 29005KT M02/M03 A303 RMK A01 T10171032  RH  090%=      5-min Rain = 0
KHA1 090305Z 29005KT M02/M03 A303 RMK A01 T10181032  RH  091%=      5-min Rain = 0
KHA1 090310Z 29006KT M02/M03 A303 RMK A01 T10181032  RH  090%=      5-min Rain = 0
KHA1 090315Z 29006KT M02/M03 A303 RMK A01 T10171033  RH  090%=      5-min Rain = 0
KHA1 090320Z 29006KT M02/M03 A303 RMK A01 T10171033  RH  089%=      5-min Rain = 0
KHA1 090325Z 29007KT M02/M03 A303 RMK A01 T10161033  RH  089%=      5-min Rain = 0
KHA1 090330Z 29006KT M02/M03 A303 RMK A01 T10161034  RH  088%=      5-min Rain = 0
KHA1 090335Z 29006KT M02/M03 A303 RMK A01 T10161034  RH  088%=      5-min Rain = 0
KHA1 090340Z 29006KT M02/M03 A303 RMK A01 T10171034  RH  088%=      5-min Rain = 0
KHA1 090345Z 29006KT M02/M04 A303 RMK A01 T10171035  RH  088%=      5-min Rain = 0
KHA1 090350Z 29006KT M02/M04 A3031 RMK A01 T10171035  RH  088%=      5-min Rain = 0
KHA1 090355Z 29006KT M02/M04 A303 RMK A01 T10181036  RH  088%=      5-min Rain = 0
KHA1 090400Z 29006KT M02/M04 A303 RMK A01 T10181036  RH  088%=      5-min Rain = 0
KHA1 090405Z 28007KT M02/M04 A303 RMK A01 T10191036  RH  088%=      5-min Rain = 0
KHA1 090410Z 28007KT M02/M04 A3031 RMK A01 T10211037  RH  089%=      5-min Rain = 0
KHA1 090415Z 29008KT M02/M04 A3031 RMK A01 T10211036  RH  090%=      5-min Rain = 0
KHA1 090420Z 29008KT M02/M04 A3031 RMK A01 T10191036  RH  089%=      5-min Rain = 0
KHA1 090425Z 29008KT M02/M04 A3031 RMK A01 T10181036  RH  088%=      5-min Rain = 0
KHA1 090430Z 28008KT M02/M04 A3031 RMK A01 T10191036  RH  088%=      5-min Rain = 0
KHA1 090435Z 29007KT M02/M04 A3031 RMK A01 T10191037  RH  088%=      5-min Rain = 0
KHA1 090440Z 29007KT M02/M04 A3031 RMK A01 T10191037  RH  088%=      5-min Rain = 0
KHA1 090445Z 29008KT M02/M04 A3031 RMK A01 T10191038  RH  087%=      5-min Rain = 0
KHA1 090450Z 28008KT M02/M04 A3031 RMK A01 T10191038  RH  087%=      5-min Rain = 0
KHA1 090455Z 29007KT M02/M04 A3031 RMK A01 T10191039  RH  087%=      5-min Rain = 0
KHA1 090500Z 29007KT M02/M04 A3031 RMK A01 T10191039  RH  087%=      5-min Rain = 0
KHA1 090505Z 29007KT M02/M04 A3031 RMK A01 T10201040  RH  087%=      5-min Rain = 0
KHA1 090510Z 28007KT M02/M04 A3032 RMK A01 T10211040  RH  087%=      5-min Rain = 0
KHA1 090515Z 29007KT M02/M04 A3032 RMK A01 T10201040  RH  087%=      5-min Rain = 0
KHA1 090520Z 29007KT M02/M04 A3031 RMK A01 T10201040  RH  087%=      5-min Rain = 0
KHA1 090525Z 29007KT M02/M04 A3031 RMK A01 T10211040  RH  087%=      5-min Rain = 0
KHA1 090530Z 29007KT M02/M04 A3031 RMK A01 T10211041  RH  087%=      5-min Rain = 0
KHA1 090535Z 29007KT M02/M04 A3031 RMK A01 T10211041  RH  087%=      5-min Rain = 0
KHA1 090540Z 29008KT M02/M04 A3032 RMK A01 T10211042  RH  086%=      5-min Rain = 0
KHA1 090545Z 29008KT M02/M04 A3031 RMK A01 T10211042  RH  086%=      5-min Rain = 0
KHA1 090550Z 29008KT M02/M04 A3031 RMK A01 T10211043  RH  086%=      5-min Rain = 0
KHA1 090555Z 29007KT M02/M04 A3031 RMK A01 T10221043  RH  086%=      5-min Rain = 0

Page generated in 0.0095 seconds.